createdAt,value
2019-03-11T00:00:38.991Z,932.04
2019-03-11T00:01:38.957Z,932.05
2019-03-11T00:02:38.899Z,932.10
2019-03-11T00:03:38.862Z,932.06
2019-03-11T00:04:38.813Z,932.10
2019-03-11T00:05:38.748Z,932.08
2019-03-11T00:06:38.724Z,932.04
2019-03-11T00:07:38.670Z,932.12
2019-03-11T00:08:38.623Z,932.11
2019-03-11T00:09:38.573Z,932.08
2019-03-11T00:10:38.527Z,932.08
2019-03-11T00:11:38.496Z,932.08
2019-03-11T00:12:38.448Z,932.07
2019-03-11T00:13:38.380Z,932.12
2019-03-11T00:14:38.355Z,932.15
2019-03-11T00:15:38.311Z,932.14
2019-03-11T00:16:38.263Z,932.16
2019-03-11T00:17:38.210Z,932.10
2019-03-11T00:18:38.171Z,932.09
2019-03-11T00:19:38.117Z,932.15
2019-03-11T00:20:38.059Z,932.17
2019-03-11T00:21:38.033Z,932.19
2019-03-11T00:22:37.966Z,932.18
2019-03-11T00:23:37.932Z,932.18
2019-03-11T00:24:37.882Z,932.14
2019-03-11T00:25:37.836Z,932.24
2019-03-11T00:26:37.790Z,932.22
2019-03-11T00:27:37.756Z,932.24
2019-03-11T00:28:37.699Z,932.26
2019-03-11T00:29:37.669Z,932.32
2019-03-11T00:30:37.597Z,932.35
2019-03-11T00:31:37.564Z,932.38
2019-03-11T00:32:37.526Z,932.37
2019-03-11T00:33:37.486Z,932.39
2019-03-11T00:34:37.412Z,932.43
2019-03-11T00:35:37.376Z,932.45
2019-03-11T00:36:37.333Z,932.47
2019-03-11T00:37:37.289Z,932.51
2019-03-11T00:38:37.249Z,932.52
2019-03-11T00:39:37.199Z,932.61
2019-03-11T00:40:37.136Z,932.68
2019-03-11T00:41:37.111Z,932.67
2019-03-11T00:42:37.066Z,932.77
2019-03-11T00:43:37.002Z,932.72
2019-03-11T00:44:36.952Z,932.71
2019-03-11T00:45:36.927Z,932.67
2019-03-11T00:46:36.868Z,932.63
2019-03-11T00:47:36.826Z,932.50
2019-03-11T00:48:36.767Z,932.56
2019-03-11T00:49:36.734Z,932.51
2019-03-11T00:50:36.684Z,932.53
2019-03-11T00:51:36.639Z,932.53
2019-03-11T00:52:36.709Z,932.55
2019-03-11T00:53:36.541Z,932.57
2019-03-11T00:54:36.512Z,932.54
2019-03-11T00:55:36.446Z,932.50
2019-03-11T00:56:36.406Z,932.52
2019-03-11T00:57:36.361Z,932.55
2019-03-11T00:58:36.319Z,932.55
2019-03-11T00:59:36.280Z,932.48
2019-03-11T01:00:36.225Z,932.50
2019-03-11T01:01:36.180Z,932.57
2019-03-11T01:02:36.122Z,932.65
2019-03-11T01:03:36.087Z,932.65
2019-03-11T01:04:36.050Z,932.73
2019-03-11T01:05:36.003Z,932.76
2019-03-11T01:06:35.957Z,932.73
2019-03-11T01:07:35.910Z,932.68
2019-03-11T01:08:35.843Z,932.63
2019-03-11T01:09:35.804Z,932.58
2019-03-11T01:10:35.763Z,932.61
2019-03-11T01:11:35.725Z,932.56
2019-03-11T01:12:35.657Z,932.54
2019-03-11T01:13:35.620Z,932.60
2019-03-11T01:14:36.015Z,932.61
2019-03-11T01:15:35.530Z,932.69
2019-03-11T01:16:35.494Z,932.70
2019-03-11T01:17:35.451Z,932.66
2019-03-11T01:18:35.402Z,932.65
2019-03-11T01:19:35.356Z,932.65
2019-03-11T01:20:35.288Z,932.61
2019-03-11T01:21:35.265Z,932.61
2019-03-11T01:22:35.209Z,932.62
2019-03-11T01:23:35.162Z,932.62
2019-03-11T01:24:35.105Z,932.60
2019-03-11T01:25:35.075Z,932.66
2019-03-11T01:26:35.012Z,932.67
2019-03-11T01:27:34.967Z,932.72
2019-03-11T01:28:34.931Z,932.73
2019-03-11T01:29:34.893Z,932.72
2019-03-11T01:30:34.842Z,932.80
2019-03-11T01:31:34.793Z,932.77
2019-03-11T01:32:34.755Z,932.83
2019-03-11T01:33:34.709Z,932.84
2019-03-11T01:34:34.642Z,932.77
2019-03-11T01:35:34.596Z,932.76
2019-03-11T01:36:34.558Z,932.74
2019-03-11T01:37:34.504Z,932.72
2019-03-11T01:38:34.470Z,932.74
2019-03-11T01:39:34.433Z,932.73
2019-03-11T01:40:34.387Z,932.70
2019-03-11T01:41:34.340Z,932.70
2019-03-11T01:42:34.286Z,932.75
2019-03-11T01:43:34.235Z,932.72
2019-03-11T01:44:34.189Z,932.78
2019-03-11T01:45:34.143Z,932.79
2019-03-11T01:46:34.089Z,932.79
2019-03-11T01:47:34.056Z,932.79
2019-03-11T01:48:34.005Z,932.84
2019-03-11T01:49:33.973Z,932.83
2019-03-11T01:50:33.912Z,932.76
2019-03-11T01:51:33.882Z,932.74
2019-03-11T01:52:33.833Z,932.75
2019-03-11T01:53:33.774Z,932.74
2019-03-11T01:54:33.732Z,932.77
2019-03-11T01:55:33.697Z,932.81
2019-03-11T01:56:33.651Z,932.88
2019-03-11T01:57:33.581Z,932.87
2019-03-11T01:58:33.548Z,932.85
2019-03-11T01:59:33.503Z,932.82
2019-03-11T02:00:33.443Z,932.76
2019-03-11T02:01:33.405Z,932.81
2019-03-11T02:02:33.350Z,932.78
2019-03-11T02:03:33.313Z,932.76
2019-03-11T02:04:33.271Z,932.75
2019-03-11T02:05:33.234Z,932.71
2019-03-11T02:06:33.179Z,932.70
2019-03-11T02:07:33.129Z,932.67
2019-03-11T02:08:33.082Z,932.68
2019-03-11T02:09:33.040Z,932.72
2019-03-11T02:10:32.981Z,932.69
2019-03-11T02:11:32.943Z,932.68
2019-03-11T02:12:32.889Z,932.71
2019-03-11T02:13:33.102Z,932.72
2019-03-11T02:14:32.806Z,932.72
2019-03-11T02:15:32.775Z,932.76
2019-03-11T02:16:32.704Z,932.79
2019-03-11T02:17:32.667Z,932.77
2019-03-11T02:18:32.636Z,932.76
2019-03-11T02:19:32.590Z,932.79
2019-03-11T02:20:32.519Z,932.84
2019-03-11T02:21:32.494Z,932.82
2019-03-11T02:22:32.429Z,932.76
2019-03-11T02:23:32.382Z,932.75
2019-03-11T02:24:32.343Z,932.74
2019-03-11T02:25:32.297Z,932.80
2019-03-11T02:26:32.250Z,932.74
2019-03-11T02:27:32.208Z,932.80
2019-03-11T02:28:32.163Z,932.78
2019-03-11T02:29:32.112Z,932.84
2019-03-11T02:30:32.070Z,932.82
2019-03-11T02:31:32.033Z,932.78
2019-03-11T02:32:31.988Z,932.77
2019-03-11T02:33:31.927Z,932.73
2019-03-11T02:34:31.882Z,932.73
2019-03-11T02:35:31.835Z,932.79
2019-03-11T02:36:31.802Z,932.86
2019-03-11T02:37:31.781Z,932.91
2019-03-11T02:38:31.696Z,932.98
2019-03-11T02:39:31.656Z,932.95
2019-03-11T02:40:31.604Z,932.90
2019-03-11T02:41:31.548Z,932.92
2019-03-11T02:42:31.515Z,932.83
2019-03-11T02:43:31.482Z,932.87
2019-03-11T02:44:31.431Z,932.83
2019-03-11T02:45:31.368Z,932.85
2019-03-11T02:46:31.330Z,932.85
2019-03-11T02:47:31.271Z,932.83
2019-03-11T02:48:31.264Z,932.86
2019-03-11T02:49:31.178Z,932.88
2019-03-11T02:50:31.141Z,932.92
2019-03-11T02:51:31.098Z,932.96
2019-03-11T02:52:31.080Z,932.93
2019-03-11T02:53:31.013Z,932.89
2019-03-11T02:54:30.960Z,932.88
2019-03-11T02:55:30.899Z,932.80
2019-03-11T02:56:30.853Z,932.75
2019-03-11T02:57:30.807Z,932.76
2019-03-11T02:58:30.760Z,932.78
2019-03-11T02:59:32.441Z,932.76
2019-03-11T03:00:30.696Z,932.76
2019-03-11T03:01:30.642Z,932.81
2019-03-11T03:02:30.587Z,932.82
2019-03-11T03:03:30.537Z,932.82
2019-03-11T03:04:30.495Z,932.81
2019-03-11T03:05:30.451Z,932.78
2019-03-11T03:06:30.403Z,932.75
2019-03-11T03:07:30.453Z,932.78
2019-03-11T03:08:30.319Z,932.76
2019-03-11T03:09:31.812Z,932.77
2019-03-11T03:10:30.212Z,932.72
2019-03-11T03:11:30.226Z,932.67
2019-03-11T03:12:30.133Z,932.68
2019-03-11T03:13:30.077Z,932.74
2019-03-11T03:14:30.038Z,932.74
2019-03-11T03:15:29.981Z,932.75
2019-03-11T03:16:29.938Z,932.79
2019-03-11T03:17:29.888Z,932.74
2019-03-11T03:18:29.840Z,932.68
2019-03-11T03:19:29.787Z,932.67
2019-03-11T03:20:29.756Z,932.62
2019-03-11T03:21:29.702Z,932.58
2019-03-11T03:22:29.648Z,932.57
2019-03-11T03:23:29.601Z,932.57
2019-03-11T03:24:29.576Z,932.49
2019-03-11T03:25:34.522Z,932.50
2019-03-11T03:26:29.463Z,932.49
2019-03-11T03:27:29.431Z,932.54
2019-03-11T03:28:29.370Z,932.57
2019-03-11T03:29:29.325Z,932.62
2019-03-11T03:30:29.349Z,932.65
2019-03-11T03:31:29.239Z,932.70
2019-03-11T03:32:29.206Z,932.71
2019-03-11T03:33:29.235Z,932.69
2019-03-11T03:34:29.102Z,932.67
2019-03-11T03:35:29.065Z,932.64
2019-03-11T03:36:29.012Z,932.65
2019-03-11T03:37:28.967Z,932.53
2019-03-11T03:38:31.249Z,932.54
2019-03-11T03:39:28.860Z,932.53
2019-03-11T03:40:28.813Z,932.58
2019-03-11T03:41:28.789Z,932.61
2019-03-11T03:42:28.734Z,932.58
2019-03-11T03:43:28.674Z,932.61
2019-03-11T03:44:28.649Z,932.63
2019-03-11T03:45:28.606Z,932.57
2019-03-11T03:46:28.556Z,932.48
2019-03-11T03:47:28.540Z,932.47
2019-03-11T03:48:28.585Z,932.40
2019-03-11T03:49:28.397Z,932.42
2019-03-11T03:50:28.372Z,932.43
2019-03-11T03:51:28.326Z,932.44
2019-03-11T03:52:28.280Z,932.49
2019-03-11T03:53:28.232Z,932.51
2019-03-11T03:54:28.195Z,932.51
2019-03-11T03:55:28.118Z,932.53
2019-03-11T03:56:28.092Z,932.53
2019-03-11T03:57:28.056Z,932.54
2019-03-11T03:58:28.003Z,932.55
2019-03-11T03:59:27.941Z,932.54
2019-03-11T04:00:27.931Z,932.52
2019-03-11T04:01:27.840Z,932.56
2019-03-11T04:02:27.793Z,932.51
2019-03-11T04:03:27.761Z,932.50
2019-03-11T04:04:27.715Z,932.53
2019-03-11T04:05:27.667Z,932.43
2019-03-11T04:06:27.624Z,932.42
2019-03-11T04:07:27.575Z,932.41
2019-03-11T04:08:27.529Z,932.40
2019-03-11T04:09:27.478Z,932.44
2019-03-11T04:10:27.431Z,932.51
2019-03-11T04:11:27.398Z,932.47
2019-03-11T04:12:27.338Z,932.48
2019-03-11T04:13:27.306Z,932.49
2019-03-11T04:14:27.237Z,932.46
2019-03-11T04:15:27.200Z,932.42
2019-03-11T04:16:27.226Z,932.41
2019-03-11T04:17:27.106Z,932.41
2019-03-11T04:18:27.065Z,932.44
2019-03-11T04:19:29.458Z,932.40
2019-03-11T04:20:26.979Z,932.41
2019-03-11T04:21:26.935Z,932.41
2019-03-11T04:22:26.874Z,932.37
2019-03-11T04:23:26.833Z,932.39
2019-03-11T04:24:26.789Z,932.34
2019-03-11T04:25:26.738Z,932.31
2019-03-11T04:26:26.699Z,932.32
2019-03-11T04:27:26.648Z,932.26
2019-03-11T04:28:26.612Z,932.17
2019-03-11T04:29:26.551Z,932.18
2019-03-11T04:30:26.506Z,932.18
2019-03-11T04:31:26.465Z,932.15
2019-03-11T04:32:26.411Z,932.12
2019-03-11T04:33:26.378Z,932.11
2019-03-11T04:34:26.318Z,932.11
2019-03-11T04:35:26.273Z,932.05
2019-03-11T04:36:26.239Z,932.07
2019-03-11T04:37:26.171Z,932.01
2019-03-11T04:38:26.146Z,932.01
2019-03-11T04:39:26.091Z,931.99
2019-03-11T04:40:26.050Z,931.94
2019-03-11T04:41:26.009Z,931.96
2019-03-11T04:42:25.939Z,931.93
2019-03-11T04:43:25.914Z,931.97
2019-03-11T04:44:25.865Z,931.96
2019-03-11T04:45:25.813Z,931.99
2019-03-11T04:46:25.775Z,931.98
2019-03-11T04:47:25.717Z,932.02
2019-03-11T04:48:25.675Z,931.95
2019-03-11T04:49:25.628Z,931.99
2019-03-11T04:50:25.570Z,931.98
2019-03-11T04:51:25.544Z,931.94
2019-03-11T04:52:25.484Z,931.89
2019-03-11T04:53:25.438Z,931.87
2019-03-11T04:54:25.423Z,931.86
2019-03-11T04:55:25.336Z,931.85
2019-03-11T04:56:25.312Z,931.79
2019-03-11T04:57:25.244Z,931.80
2019-03-11T04:58:25.219Z,931.85
2019-03-11T04:59:25.165Z,931.80
2019-03-11T05:00:25.113Z,931.82
2019-03-11T05:01:25.059Z,931.79
2019-03-11T05:02:25.015Z,931.74
2019-03-11T05:03:24.974Z,931.68
2019-03-11T05:04:24.933Z,931.71
2019-03-11T05:05:24.874Z,931.69
2019-03-11T05:06:24.841Z,931.66
2019-03-11T05:07:24.785Z,931.67
2019-03-11T05:08:24.747Z,931.69
2019-03-11T05:09:24.700Z,931.64
2019-03-11T05:10:24.663Z,931.59
2019-03-11T05:11:24.608Z,931.54
2019-03-11T05:12:24.548Z,931.54
2019-03-11T05:13:24.515Z,931.51
2019-03-11T05:14:24.483Z,931.41
2019-03-11T05:15:24.426Z,931.39
2019-03-11T05:16:24.363Z,931.37
2019-03-11T05:17:24.318Z,931.32
2019-03-11T05:18:24.295Z,931.29
2019-03-11T05:19:24.225Z,931.24
2019-03-11T05:20:24.203Z,931.24
2019-03-11T05:21:24.145Z,931.26
2019-03-11T05:22:24.108Z,931.27
2019-03-11T05:23:24.046Z,931.22
2019-03-11T05:24:24.007Z,931.25
2019-03-11T05:25:23.968Z,931.23
2019-03-11T05:26:23.907Z,931.24
2019-03-11T05:27:23.867Z,931.19
2019-03-11T05:28:23.808Z,931.18
2019-03-11T05:29:23.760Z,931.16
2019-03-11T05:30:23.739Z,931.16
2019-03-11T05:31:23.688Z,931.15
2019-03-11T05:32:23.628Z,931.17
2019-03-11T05:33:23.587Z,931.17
2019-03-11T05:34:23.528Z,931.18
2019-03-11T05:35:23.481Z,931.17
2019-03-11T05:36:23.443Z,931.16
2019-03-11T05:37:23.388Z,931.09
2019-03-11T05:38:23.363Z,931.08
2019-03-11T05:39:23.306Z,931.04
2019-03-11T05:40:23.330Z,931.01
2019-03-11T05:41:23.213Z,930.99
2019-03-11T05:42:23.169Z,930.97
2019-03-11T05:43:23.118Z,930.90
2019-03-11T05:44:23.062Z,930.93
2019-03-11T05:45:23.016Z,930.91
2019-03-11T05:46:22.991Z,930.88
2019-03-11T05:47:22.932Z,930.88
2019-03-11T05:48:22.876Z,930.90
2019-03-11T05:49:22.833Z,930.88
2019-03-11T05:50:22.795Z,930.89
2019-03-11T05:51:31.092Z,930.88
2019-03-11T05:52:22.707Z,930.86
2019-03-11T05:53:22.665Z,930.81
2019-03-11T05:54:22.597Z,930.81
2019-03-11T05:55:22.572Z,930.74
2019-03-11T05:56:22.504Z,930.74
2019-03-11T05:57:22.471Z,930.69
2019-03-11T05:58:22.414Z,930.74
2019-03-11T05:59:22.386Z,930.64
2019-03-11T06:00:22.332Z,930.68
2019-03-11T06:01:22.280Z,930.62
2019-03-11T06:02:22.225Z,930.68
2019-03-11T06:03:22.179Z,930.64
2019-03-11T06:04:22.153Z,930.58
2019-03-11T06:05:22.098Z,930.61
2019-03-11T06:06:22.060Z,930.56
2019-03-11T06:07:21.993Z,930.52
2019-03-11T06:08:21.961Z,930.51
2019-03-11T06:09:21.907Z,930.54
2019-03-11T06:10:21.875Z,930.53
2019-03-11T06:11:21.827Z,930.49
2019-03-11T06:12:21.780Z,930.45
2019-03-11T06:13:21.714Z,930.44
2019-03-11T06:14:21.687Z,930.44
2019-03-11T06:15:21.640Z,930.39
2019-03-11T06:16:21.585Z,930.39
2019-03-11T06:17:21.534Z,930.37
2019-03-11T06:18:21.500Z,930.41
2019-03-11T06:19:21.433Z,930.42
2019-03-11T06:20:21.385Z,930.37
2019-03-11T06:21:21.347Z,930.31
2019-03-11T06:22:21.300Z,930.29
2019-03-11T06:23:21.258Z,930.27
2019-03-11T06:24:21.198Z,930.18
2019-03-11T06:25:21.182Z,930.20
2019-03-11T06:26:21.120Z,930.12
2019-03-11T06:27:21.059Z,930.11
2019-03-11T06:28:21.024Z,930.04
2019-03-11T06:29:30.055Z,929.97
2019-03-11T06:30:20.940Z,929.92
2019-03-11T06:31:20.893Z,929.87
2019-03-11T06:32:20.840Z,929.85
2019-03-11T06:33:20.778Z,929.83
2019-03-11T06:34:20.750Z,929.76
2019-03-11T06:35:20.706Z,929.79
2019-03-11T06:36:20.659Z,929.77
2019-03-11T06:37:20.602Z,929.75
2019-03-11T06:38:20.545Z,929.71
2019-03-11T06:39:20.507Z,929.70
2019-03-11T06:40:20.460Z,929.68
2019-03-11T06:41:20.421Z,929.71
2019-03-11T06:42:20.367Z,929.72
2019-03-11T06:43:20.352Z,929.74
2019-03-11T06:44:20.265Z,929.75
2019-03-11T06:45:20.218Z,929.75
2019-03-11T06:46:20.195Z,929.70
2019-03-11T06:47:20.125Z,929.73
2019-03-11T06:48:20.078Z,929.76
2019-03-11T06:49:20.044Z,929.79
2019-03-11T06:50:19.993Z,929.78
2019-03-11T06:51:19.950Z,929.82
2019-03-11T06:52:19.914Z,929.86
2019-03-11T06:53:19.858Z,929.85
2019-03-11T06:54:19.812Z,929.84
2019-03-11T06:55:19.751Z,929.84
2019-03-11T06:56:19.705Z,929.84
2019-03-11T06:57:19.658Z,929.89
2019-03-11T06:58:19.624Z,929.86
2019-03-11T06:59:19.573Z,929.81
2019-03-11T07:00:19.519Z,929.86
2019-03-11T07:01:19.481Z,929.91
2019-03-11T07:02:19.439Z,929.90
2019-03-11T07:03:19.387Z,929.94
2019-03-11T07:04:19.353Z,929.91
2019-03-11T07:05:21.041Z,929.89
2019-03-11T07:06:19.247Z,929.91
2019-03-11T07:07:19.192Z,929.95
2019-03-11T07:08:19.145Z,929.94
2019-03-11T07:09:19.202Z,929.96
2019-03-11T07:10:19.053Z,929.98
2019-03-11T07:11:19.026Z,930.03
2019-03-11T07:12:18.969Z,930.03
2019-03-11T07:13:18.928Z,930.00
2019-03-11T07:14:18.886Z,930.05
2019-03-11T07:15:18.825Z,930.00
2019-03-11T07:16:18.785Z,929.99
2019-03-11T07:17:18.811Z,929.98
2019-03-11T07:18:18.689Z,929.90
2019-03-11T07:19:18.631Z,929.95
2019-03-11T07:20:18.599Z,929.86
2019-03-11T07:21:18.558Z,929.91
2019-03-11T07:22:18.514Z,929.83
2019-03-11T07:23:18.456Z,929.80
2019-03-11T07:24:18.396Z,929.87
2019-03-11T07:25:18.368Z,929.85
2019-03-11T07:26:18.305Z,929.72
2019-03-11T07:27:18.269Z,929.74
2019-03-11T07:28:18.231Z,929.71
2019-03-11T07:29:18.171Z,929.76
2019-03-11T07:30:18.139Z,929.80
2019-03-11T07:31:18.077Z,929.78
2019-03-11T07:32:18.024Z,929.85
2019-03-11T07:33:17.984Z,929.89
2019-03-11T07:34:17.943Z,929.82
2019-03-11T07:35:17.903Z,929.86
2019-03-11T07:36:17.856Z,929.93
2019-03-11T07:37:17.883Z,929.92
2019-03-11T07:38:17.761Z,929.98
2019-03-11T07:39:17.708Z,929.92
2019-03-11T07:40:28.536Z,929.97
2019-03-11T07:41:17.622Z,929.99
2019-03-11T07:42:17.575Z,929.99
2019-03-11T07:43:17.522Z,930.00
2019-03-11T07:44:17.481Z,930.00
2019-03-11T07:45:17.414Z,930.02
2019-03-11T07:46:17.366Z,929.99
2019-03-11T07:47:17.341Z,930.00
2019-03-11T07:48:17.294Z,929.96
2019-03-11T07:49:17.259Z,930.00
2019-03-11T07:50:17.202Z,930.05
2019-03-11T07:51:17.141Z,930.03
2019-03-11T07:52:17.106Z,930.04
2019-03-11T07:53:17.063Z,929.99
2019-03-11T07:54:17.014Z,930.01
2019-03-11T07:55:16.947Z,930.01
2019-03-11T07:56:16.911Z,929.95
2019-03-11T07:57:16.865Z,930.00
2019-03-11T07:58:16.813Z,930.01
2019-03-11T07:59:16.766Z,929.96
2019-03-11T08:00:16.720Z,929.98
2019-03-11T08:01:16.664Z,929.97
2019-03-11T08:02:18.342Z,929.97
2019-03-11T08:03:16.579Z,929.93
2019-03-11T08:04:16.533Z,929.97
2019-03-11T08:05:16.499Z,929.98
2019-03-11T08:06:18.934Z,930.00
2019-03-11T08:07:16.396Z,930.03
2019-03-11T08:08:16.345Z,930.08
2019-03-11T08:09:16.290Z,929.98
2019-03-11T08:10:16.458Z,930.03
2019-03-11T08:11:16.204Z,930.03
2019-03-11T08:12:16.158Z,930.07
2019-03-11T08:13:16.120Z,930.11
2019-03-11T08:14:16.069Z,930.09
2019-03-11T08:15:16.010Z,930.06
2019-03-11T08:16:15.962Z,930.12
2019-03-11T08:17:15.915Z,930.09
2019-03-11T08:18:15.869Z,930.08
2019-03-11T08:19:15.822Z,930.11
2019-03-11T08:20:15.775Z,930.11
2019-03-11T08:21:15.742Z,930.12
2019-03-11T08:22:15.690Z,930.10
2019-03-11T08:23:15.643Z,930.03
2019-03-11T08:24:16.669Z,930.05
2019-03-11T08:25:15.547Z,930.07
2019-03-11T08:26:15.503Z,930.09
2019-03-11T08:27:15.469Z,930.13
2019-03-11T08:28:15.414Z,930.13
2019-03-11T08:29:15.367Z,930.11
2019-03-11T08:30:15.320Z,930.13
2019-03-11T08:31:15.269Z,930.14
2019-03-11T08:32:15.226Z,930.11
2019-03-11T08:33:15.175Z,930.10
2019-03-11T08:34:15.137Z,930.14
2019-03-11T08:35:15.081Z,930.13
2019-03-11T08:36:15.026Z,930.06
2019-03-11T08:37:14.981Z,930.06
2019-03-11T08:38:14.945Z,930.09
2019-03-11T08:39:14.896Z,930.16
2019-03-11T08:40:14.869Z,930.16
2019-03-11T08:41:14.813Z,930.21
2019-03-11T08:42:14.766Z,930.23
2019-03-11T08:43:14.733Z,930.25
2019-03-11T08:44:14.671Z,930.26
2019-03-11T08:45:14.618Z,930.26
2019-03-11T08:46:14.570Z,930.25
2019-03-11T08:47:14.511Z,930.29
2019-03-11T08:48:14.472Z,930.42
2019-03-11T08:49:14.417Z,930.39
2019-03-11T08:50:14.396Z,930.39
2019-03-11T08:51:14.323Z,930.36
2019-03-11T08:52:14.277Z,930.47
2019-03-11T08:53:14.251Z,930.50
2019-03-11T08:54:14.187Z,930.43
2019-03-11T08:55:14.153Z,930.44
2019-03-11T08:56:14.102Z,930.42
2019-03-11T08:57:14.050Z,930.41
2019-03-11T08:58:13.995Z,930.48
2019-03-11T08:59:13.957Z,930.53
2019-03-11T09:00:13.915Z,930.53
2019-03-11T09:01:13.876Z,930.51
2019-03-11T09:02:13.816Z,930.54
2019-03-11T09:03:13.782Z,930.55
2019-03-11T09:04:13.738Z,930.54
2019-03-11T09:05:13.689Z,930.55
2019-03-11T09:06:13.633Z,930.59
2019-03-11T09:07:13.573Z,930.62
2019-03-11T09:08:13.526Z,930.61
2019-03-11T09:09:13.490Z,930.68
2019-03-11T09:10:13.448Z,930.61
2019-03-11T09:11:13.407Z,930.63
2019-03-11T09:12:13.370Z,930.61
2019-03-11T09:13:13.313Z,930.70
2019-03-11T09:14:13.273Z,930.68
2019-03-11T09:15:13.198Z,930.72
2019-03-11T09:16:13.161Z,930.74
2019-03-11T09:17:13.125Z,930.73
2019-03-11T09:18:13.080Z,930.74
2019-03-11T09:19:13.023Z,930.75
2019-03-11T09:20:12.978Z,930.77
2019-03-11T09:21:12.938Z,930.80
2019-03-11T09:22:12.890Z,930.82
2019-03-11T09:23:12.831Z,930.85
2019-03-11T09:24:19.096Z,930.81
2019-03-11T09:25:12.741Z,930.84
2019-03-11T09:26:12.682Z,930.82
2019-03-11T09:27:12.643Z,930.84
2019-03-11T09:28:12.603Z,930.86
2019-03-11T09:29:12.554Z,930.90
2019-03-11T09:30:12.696Z,930.91
2019-03-11T09:31:12.457Z,930.88
2019-03-11T09:32:12.400Z,930.90
2019-03-11T09:33:12.363Z,931.05
2019-03-11T09:34:12.310Z,930.97
2019-03-11T09:35:12.263Z,931.00
2019-03-11T09:36:12.214Z,930.99
2019-03-11T09:37:12.180Z,931.03
2019-03-11T09:38:12.141Z,931.07
2019-03-11T09:39:12.085Z,931.05
2019-03-11T09:40:12.039Z,931.05
2019-03-11T09:41:11.992Z,931.12
2019-03-11T09:42:11.941Z,931.06
2019-03-11T09:43:11.888Z,931.04
2019-03-11T09:44:11.862Z,931.11
2019-03-11T09:45:11.810Z,931.13
2019-03-11T09:46:11.766Z,931.18
2019-03-11T09:47:11.709Z,931.21
2019-03-11T09:48:11.669Z,931.18
2019-03-11T09:49:11.615Z,931.19
2019-03-11T09:50:11.558Z,931.19
2019-03-11T09:51:11.511Z,931.22
2019-03-11T09:52:11.485Z,931.23
2019-03-11T09:53:11.438Z,931.28
2019-03-11T09:54:11.378Z,931.29
2019-03-11T09:55:11.346Z,931.27
2019-03-11T09:56:11.298Z,931.29
2019-03-11T09:57:11.238Z,931.39
2019-03-11T09:58:11.195Z,931.43
2019-03-11T09:59:11.158Z,931.49
2019-03-11T10:00:11.104Z,931.42
2019-03-11T10:01:11.056Z,931.46
2019-03-11T10:02:12.369Z,931.48
2019-03-11T10:03:10.961Z,931.46
2019-03-11T10:04:10.904Z,931.47
2019-03-11T10:05:10.870Z,931.54
2019-03-11T10:06:10.811Z,931.52
2019-03-11T10:07:10.787Z,931.55
2019-03-11T10:08:11.079Z,931.55
2019-03-11T10:09:10.690Z,931.58
2019-03-11T10:10:10.622Z,931.61
2019-03-11T10:11:10.586Z,931.59
2019-03-11T10:12:10.537Z,931.57
2019-03-11T10:13:10.504Z,931.59
2019-03-11T10:14:10.437Z,931.59
2019-03-11T10:15:10.411Z,931.59
2019-03-11T10:16:10.363Z,931.61
2019-03-11T10:17:10.311Z,931.66
2019-03-11T10:18:10.265Z,931.68
2019-03-11T10:19:10.218Z,931.80
2019-03-11T10:20:10.169Z,931.79
2019-03-11T10:21:10.130Z,931.76
2019-03-11T10:22:10.061Z,931.79
2019-03-11T10:23:10.029Z,931.76
2019-03-11T10:24:09.977Z,931.79
2019-03-11T10:25:09.924Z,931.89
2019-03-11T10:26:09.884Z,931.87
2019-03-11T10:27:09.842Z,931.93
2019-03-11T10:28:09.802Z,931.94
2019-03-11T10:29:09.773Z,931.98
2019-03-11T10:30:09.704Z,932.02
2019-03-11T10:31:09.646Z,932.02
2019-03-11T10:32:09.603Z,932.04
2019-03-11T10:33:09.562Z,932.05
2019-03-11T10:34:09.524Z,932.07
2019-03-11T10:35:30.215Z,932.07
2019-03-11T10:36:09.416Z,932.08
2019-03-11T10:37:09.365Z,932.12
2019-03-11T10:38:09.323Z,932.22
2019-03-11T10:39:09.276Z,932.20
2019-03-11T10:40:09.232Z,932.24
2019-03-11T10:41:09.197Z,932.27
2019-03-11T10:42:09.137Z,932.30
2019-03-11T10:43:09.103Z,932.32
2019-03-11T10:44:09.039Z,932.37
2019-03-11T10:45:09.002Z,932.44
2019-03-11T10:46:08.957Z,932.45
2019-03-11T10:47:08.903Z,932.50
2019-03-11T10:48:08.876Z,932.54
2019-03-11T10:49:08.814Z,932.58
2019-03-11T10:50:08.782Z,932.58
2019-03-11T10:51:08.736Z,932.60
2019-03-11T10:52:08.685Z,932.61
2019-03-11T10:53:08.653Z,932.62
2019-03-11T10:54:08.579Z,932.60
2019-03-11T10:55:08.538Z,932.67
2019-03-11T10:56:08.498Z,932.69
2019-03-11T10:57:08.477Z,932.74
2019-03-11T10:58:08.392Z,932.72
2019-03-11T10:59:08.360Z,932.80
2019-03-11T11:00:08.311Z,932.76
2019-03-11T11:01:09.748Z,932.78
2019-03-11T11:02:08.197Z,932.82
2019-03-11T11:03:08.171Z,932.84
2019-03-11T11:04:08.112Z,932.82
2019-03-11T11:05:08.078Z,932.83
2019-03-11T11:06:08.025Z,932.82
2019-03-11T11:07:07.988Z,932.79
2019-03-11T11:08:07.940Z,932.84
2019-03-11T11:09:07.872Z,932.89
2019-03-11T11:10:07.840Z,932.84
2019-03-11T11:11:07.779Z,932.88
2019-03-11T11:12:07.759Z,932.88
2019-03-11T11:13:07.693Z,932.90
2019-03-11T11:14:07.649Z,932.92
2019-03-11T11:15:07.600Z,932.93
2019-03-11T11:16:07.582Z,932.95
2019-03-11T11:17:07.508Z,932.94
2019-03-11T11:18:07.465Z,933.02
2019-03-11T11:19:07.422Z,933.01
2019-03-11T11:20:07.362Z,932.99
2019-03-11T11:21:07.338Z,933.03
2019-03-11T11:22:07.268Z,933.01
2019-03-11T11:23:07.242Z,933.00
2019-03-11T11:24:07.187Z,933.04
2019-03-11T11:25:07.151Z,933.03
2019-03-11T11:26:07.085Z,933.07
2019-03-11T11:27:07.058Z,933.11
2019-03-11T11:28:07.033Z,933.10
2019-03-11T11:29:06.964Z,933.12
2019-03-11T11:30:06.896Z,933.11
2019-03-11T11:31:06.867Z,933.13
2019-03-11T11:32:06.817Z,933.14
2019-03-11T11:33:06.772Z,933.16
2019-03-11T11:34:06.732Z,933.18
2019-03-11T11:35:06.678Z,933.16
2019-03-11T11:36:06.634Z,933.17
2019-03-11T11:37:06.579Z,933.19
2019-03-11T11:38:06.549Z,933.25
2019-03-11T11:39:06.494Z,933.19
2019-03-11T11:40:06.448Z,933.23
2019-03-11T11:41:06.400Z,933.24
2019-03-11T11:42:06.370Z,933.21
2019-03-11T11:43:06.315Z,933.28
2019-03-11T11:44:06.265Z,933.31
2019-03-11T11:45:06.202Z,933.28
2019-03-11T11:46:06.181Z,933.31
2019-03-11T11:47:06.114Z,933.25
2019-03-11T11:48:08.194Z,933.28
2019-03-11T11:49:06.038Z,933.26
2019-03-11T11:50:05.980Z,933.28
2019-03-11T11:51:05.930Z,933.28
2019-03-11T11:52:05.891Z,933.30
2019-03-11T11:53:05.842Z,933.32
2019-03-11T11:54:05.796Z,933.31
2019-03-11T11:55:05.761Z,933.35
2019-03-11T11:56:05.694Z,933.38
2019-03-11T11:57:05.671Z,933.35
2019-03-11T11:58:05.628Z,933.42
2019-03-11T11:59:05.563Z,933.47
2019-03-11T12:00:05.525Z,933.44
2019-03-11T12:01:05.494Z,933.38
2019-03-11T12:02:05.444Z,933.42
2019-03-11T12:03:05.383Z,933.41
2019-03-11T12:04:05.333Z,933.46
2019-03-11T12:05:05.290Z,933.43
2019-03-11T12:06:05.251Z,933.48
2019-03-11T12:07:05.195Z,933.39
2019-03-11T12:08:05.165Z,933.42
2019-03-11T12:09:05.110Z,933.40
2019-03-11T12:10:05.061Z,933.46
2019-03-11T12:11:05.015Z,933.47
2019-03-11T12:12:06.056Z,933.50
2019-03-11T12:13:04.923Z,933.44
2019-03-11T12:14:04.887Z,933.49
2019-03-11T12:15:04.829Z,933.44
2019-03-11T12:16:04.774Z,933.52
2019-03-11T12:17:04.735Z,933.48
2019-03-11T12:18:04.689Z,933.47
2019-03-11T12:19:04.660Z,933.45
2019-03-11T12:20:04.600Z,933.48
2019-03-11T12:21:04.544Z,933.42
2019-03-11T12:22:04.532Z,933.47
2019-03-11T12:23:04.463Z,933.46
2019-03-11T12:24:04.406Z,933.47
2019-03-11T12:25:04.362Z,933.47
2019-03-11T12:26:04.338Z,933.44
2019-03-11T12:27:04.270Z,933.50
2019-03-11T12:28:04.243Z,933.50